Time;durP1;ratioP1;P1;durP2;ratioP2;P2;SDS_P1;SDS_P2;PMS_P1;PMS_P2;Temp;Humidity;BMP_temperature;BMP_pressure;BME280_temperature;BME280_humidity;BME280_pressure;Samples;Min_cycle;Max_cycle;Signal;HPM_P1;HPM_P2
2023/07/12 00:01:13;;;;;;;3.83;3.53;;;22.30;79.50;;;;;;5030256;28;20204;-75
2023/07/12 00:03:39;;;;;;;4.10;3.70;;;22.30;78.10;;;;;;5030005;28;20184;-75
2023/07/12 00:06:12;;;;;;;3.97;3.60;;;22.30;78.50;;;;;;5030120;28;20637;-74
2023/07/12 00:08:40;;;;;;;4.65;3.58;;;22.20;78.00;;;;;;5029947;28;20581;-75
2023/07/12 00:11:20;;;;;;;3.65;3.35;;;22.20;78.50;;;;;;5029987;28;20624;-75
2023/07/12 00:13:46;;;;;;;3.58;3.33;;;22.20;78.10;;;;;;5029833;28;20295;-75
2023/07/12 00:16:17;;;;;;;3.65;3.47;;;22.20;78.80;;;;;;5030428;28;20586;-75
2023/07/12 00:18:43;;;;;;;4.57;3.60;;;22.20;78.30;;;;;;5030280;28;20574;-75
2023/07/12 00:21:11;;;;;;;3.75;3.42;;;22.10;79.60;;;;;;5034728;28;20187;-74
2023/07/12 00:23:38;;;;;;;4.13;3.42;;;22.10;79.00;;;;;;5033371;28;20250;-75
2023/07/12 00:26:34;;;;;;;4.43;3.63;;;22.10;79.30;;;;;;5033434;28;20238;-75
2023/07/12 00:29:03;;;;;;;3.15;2.97;;;22.10;78.80;;;;;;5024959;28;20554;-75
2023/07/12 00:31:29;;;;;;;3.67;3.30;;;22.10;79.00;;;;;;5033265;28;20573;-75
2023/07/12 00:33:56;;;;;;;3.97;3.30;;;22.10;79.20;;;;;;5033277;28;20172;-75
2023/07/12 00:36:23;;;;;;;4.22;3.20;;;22.10;79.20;;;;;;5033135;28;20243;-75
2023/07/12 00:38:49;;;;;;;3.55;3.35;;;22.10;79.50;;;;;;5033064;28;20642;-75
2023/07/12 00:41:37;;;;;;;3.83;3.60;;;22.00;79.30;;;;;;5029761;28;20230;-75
2023/07/12 00:44:10;;;;;;;4.20;3.75;;;22.00;79.50;;;;;;5026843;28;20717;-74
2023/07/12 00:46:41;;;;;;;3.80;3.42;;;21.90;79.10;;;;;;5022643;28;20176;-75
2023/07/12 00:49:09;;;;;;;3.33;3.22;;;21.90;79.50;;;;;;5031726;28;20180;-75
2023/07/12 00:51:52;;;;;;;3.78;3.53;;;21.90;79.50;;;;;;5031826;28;20219;-75
2023/07/12 00:54:20;;;;;;;3.75;3.38;;;21.80;79.70;;;;;;5032770;28;20214;-75
2023/07/12 00:56:46;;;;;;;3.42;3.15;;;21.80;79.90;;;;;;5032878;28;20674;-74
2023/07/12 00:59:26;;;;;;;3.78;3.58;;;21.70;79.90;;;;;;5032773;28;20236;-74
2023/07/12 01:01:56;;;;;;;4.28;3.20;;;21.70;79.50;;;;;;5032846;28;20572;-75
2023/07/12 01:04:26;;;;;;;4.72;4.32;;;21.60;80.10;;;;;;5032829;28;20727;-74
2023/07/12 01:06:52;;;;;;;4.03;3.72;;;21.60;79.80;;;;;;5032612;28;20230;-75
2023/07/12 01:09:19;;;;;;;3.58;3.42;;;21.60;80.20;;;;;;5032602;28;20255;-75
2023/07/12 01:11:46;;;;;;;4.30;4.00;;;21.60;80.10;;;;;;5032620;28;20176;-75
2023/07/12 01:14:14;;;;;;;3.90;3.42;;;21.60;80.30;;;;;;5031474;28;20195;-75
2023/07/12 01:16:42;;;;;;;3.58;3.38;;;21.60;80.20;;;;;;5032470;28;20195;-75
2023/07/12 01:19:09;;;;;;;4.40;3.33;;;21.50;80.40;;;;;;5032386;28;20220;-75
2023/07/12 01:21:40;;;;;;;3.97;3.67;;;21.50;80.30;;;;;;5030574;28;20238;-75
2023/07/12 01:24:06;;;;;;;4.45;3.72;;;21.50;80.00;;;;;;5032430;28;20187;-75
2023/07/12 01:26:38;;;;;;;3.60;3.40;;;21.50;80.30;;;;;;5032237;28;20197;-75
2023/07/12 01:29:06;;;;;;;3.30;3.00;;;21.50;80.00;;;;;;5032076;28;20255;-75
2023/07/12 01:31:33;;;;;;;4.95;3.97;;;21.50;80.60;;;;;;5032096;28;20238;-75
2023/07/12 01:33:59;;;;;;;4.05;3.75;;;21.50;80.70;;;;;;5032239;28;20177;-74
2023/07/12 01:36:26;;;;;;;3.28;3.08;;;21.50;80.70;;;;;;5032139;28;20175;-74
2023/07/12 01:38:54;;;;;;;3.53;3.13;;;21.50;80.70;;;;;;5032057;28;20215;-74
2023/07/12 01:41:20;;;;;;;3.63;3.33;;;21.50;80.90;;;;;;5031912;28;20184;-74
2023/07/12 01:43:45;;;;;;;4.80;3.78;;;21.40;81.30;;;;;;5031971;28;20174;-74
2023/07/12 01:46:12;;;;;;;3.45;3.28;;;21.40;81.30;;;;;;5032059;28;20196;-75
2023/07/12 01:48:38;;;;;;;3.28;3.13;;;21.40;81.30;;;;;;5031889;28;20180;-75
2023/07/12 01:51:04;;;;;;;3.60;3.40;;;21.40;81.50;;;;;;5031795;28;20258;-75
2023/07/12 01:53:31;;;;;;;3.42;3.22;;;21.40;81.40;;;;;;5031780;28;20173;-75
2023/07/12 01:55:57;;;;;;;4.22;3.92;;;21.30;81.40;;;;;;5030411;28;20701;-75
2023/07/12 01:58:23;;;;;;;3.97;3.55;;;21.30;81.60;;;;;;5031666;28;20243;-74
2023/07/12 02:00:50;;;;;;;3.92;3.70;;;21.30;81.40;;;;;;5031548;28;20204;-75
2023/07/12 02:03:16;;;;;;;4.05;3.70;;;21.30;82.00;;;;;;5030351;28;20241;-75
2023/07/12 02:05:42;;;;;;;4.80;3.70;;;21.30;81.70;;;;;;5031529;28;20200;-75
2023/07/12 02:08:09;;;;;;;3.08;2.95;;;21.20;82.30;;;;;;5031668;28;20247;-74
2023/07/12 02:10:34;;;;;;;3.38;3.13;;;21.20;82.00;;;;;;5030032;28;20192;-75
2023/07/12 02:13:00;;;;;;;3.78;3.58;;;21.10;82.70;;;;;;5031461;28;20173;-75
2023/07/12 02:15:27;;;;;;;3.90;3.58;;;21.10;82.80;;;;;;5030040;28;20180;-75
2023/07/12 02:17:52;;;;;;;3.78;3.40;;;21.00;84.10;;;;;;5031434;28;20204;-75
2023/07/12 02:20:18;;;;;;;4.38;3.70;;;21.00;83.00;;;;;;5032337;28;20216;-75
2023/07/12 02:22:46;;;;;;;4.03;3.65;;;21.00;82.90;;;;;;5031260;28;20732;-74
2023/07/12 02:25:13;;;;;;;4.35;3.85;;;21.00;83.40;;;;;;5031199;28;20326;-74
2023/07/12 02:27:39;;;;;;;3.65;3.45;;;20.90;83.20;;;;;;5029865;28;20267;-75
2023/07/12 02:30:12;;;;;;;5.72;4.20;;;21.00;83.20;;;;;;5031074;28;20180;-74
2023/07/12 02:32:37;;;;;;;4.18;3.80;;;21.00;82.60;;;;;;5031158;28;20311;-75
2023/07/12 02:35:03;;;;;;;3.75;3.55;;;20.90;83.10;;;;;;5031032;28;20267;-74
2023/07/12 02:37:29;;;;;;;3.90;3.70;;;20.90;83.20;;;;;;5031025;28;20195;-74
2023/07/12 02:39:55;;;;;;;4.10;3.75;;;20.90;83.10;;;;;;5030911;28;20622;-75
2023/07/12 02:42:25;;;;;;;3.63;3.42;;;20.90;84.30;;;;;;5030370;28;20580;-74
2023/07/12 02:45:12;;;;;;;4.65;3.83;;;20.70;84.20;;;;;;5020123;28;20650;-75
2023/07/12 02:47:41;;;;;;;3.95;3.72;;;20.70;83.70;;;;;;5030812;28;20764;-74
2023/07/12 02:50:10;;;;;;;4.15;3.83;;;20.70;83.70;;;;;;5030756;28;20262;-75
2023/07/12 02:52:35;;;;;;;4.50;4.10;;;20.80;84.30;;;;;;5030628;28;20231;-74
2023/07/12 02:55:01;;;;;;;4.22;3.92;;;20.80;83.60;;;;;;5029381;28;20179;-75
2023/07/12 02:57:27;;;;;;;5.10;4.22;;;20.80;84.30;;;;;;5030603;28;20203;-74
2023/07/12 02:59:54;;;;;;;4.20;4.00;;;20.80;83.70;;;;;;5029330;28;20208;-75
2023/07/12 03:02:21;;;;;;;4.57;4.22;;;20.70;84.40;;;;;;5030540;28;20247;-74
2023/07/12 03:05:09;;;;;;;4.32;4.05;;;20.70;84.20;;;;;;5030580;28;20184;-75
2023/07/12 03:08:15;;;;;;;3.63;3.42;;;20.70;83.70;;;;;;5020066;28;20195;-74
2023/07/12 03:11:02;;;;;;;5.22;3.58;;;20.70;83.80;;;;;;5018191;28;20188;-74
2023/07/12 03:14:22;;;;;;;5.00;3.38;;;20.70;84.00;;;;;;5029836;28;20235;-75
2023/07/12 03:16:49;;;;;;;3.88;3.58;;;20.60;84.40;;;;;;5030498;28;20218;-75
2023/07/12 03:19:15;;;;;;;4.20;3.90;;;20.60;84.20;;;;;;5030962;28;20236;-74
2023/07/12 03:21:42;;;;;;;4.25;3.90;;;20.60;84.10;;;;;;5031111;28;20635;-74
2023/07/12 03:24:09;;;;;;;3.88;3.67;;;20.60;84.50;;;;;;5030413;28;20188;-75
2023/07/12 03:26:36;;;;;;;4.03;3.67;;;20.60;84.10;;;;;;5029109;28;20262;-75
2023/07/12 03:29:02;;;;;;;4.13;3.35;;;20.60;84.70;;;;;;5030408;28;20183;-75
2023/07/12 03:31:29;;;;;;;3.47;3.17;;;20.60;84.80;;;;;;5029047;28;20186;-74
2023/07/12 03:33:55;;;;;;;4.43;4.03;;;20.50;86.10;;;;;;5030539;28;20230;-74
2023/07/12 03:36:39;;;;;;;4.53;4.10;;;20.50;85.00;;;;;;5030203;28;20172;-74
2023/07/12 03:39:05;;;;;;;5.70;3.83;;;20.50;85.80;;;;;;5030308;28;20219;-75
2023/07/12 03:41:31;;;;;;;3.63;3.33;;;20.40;86.10;;;;;;5029050;28;20184;-75
2023/07/12 03:43:56;;;;;;;4.65;4.25;;;20.40;86.60;;;;;;5029012;28;20275;-74
2023/07/12 03:46:22;;;;;;;4.63;4.32;;;20.30;88.00;;;;;;5030115;28;20180;-74
2023/07/12 03:48:48;;;;;;;4.70;4.30;;;20.10;88.50;;;;;;5029959;28;20184;-74
2023/07/12 03:51:16;;;;;;;5.40;4.05;;;20.10;88.80;;;;;;5030130;28;20204;-74
2023/07/12 03:53:42;;;;;;;4.05;3.42;;;20.00;88.10;;;;;;5032199;28;20256;-74
2023/07/12 03:56:27;;;;;;;4.07;3.78;;;20.10;87.50;;;;;;5033980;28;20200;-74
2023/07/12 03:58:53;;;;;;;4.97;4.13;;;20.20;86.30;;;;;;5033692;28;20200;-75
2023/07/12 04:01:18;;;;;;;4.00;3.70;;;20.30;86.10;;;;;;5033906;28;20187;-75
2023/07/12 04:03:44;;;;;;;3.92;3.65;;;20.30;88.20;;;;;;5033865;28;20199;-75
2023/07/12 04:06:12;;;;;;;4.20;3.80;;;20.20;87.10;;;;;;5032517;28;20674;-74
2023/07/12 04:08:38;;;;;;;4.20;3.83;;;20.30;86.60;;;;;;5032461;28;20184;-74
2023/07/12 04:11:04;;;;;;;6.28;3.97;;;20.30;87.60;;;;;;5033768;28;20579;-74
2023/07/12 04:13:30;;;;;;;3.83;3.63;;;20.30;86.50;;;;;;5033509;28;20212;-74
2023/07/12 04:15:59;;;;;;;4.47;4.15;;;20.30;86.80;;;;;;5033619;28;20281;-74
2023/07/12 04:18:26;;;;;;;3.90;3.58;;;20.40;86.10;;;;;;5033644;28;20199;-74
2023/07/12 04:20:58;;;;;;;4.13;3.80;;;20.50;85.60;;;;;;5034686;28;20216;-74
2023/07/12 04:23:24;;;;;;;6.03;4.05;;;20.50;85.20;;;;;;5033631;28;20257;-74
2023/07/12 04:25:58;;;;;;;4.07;3.88;;;20.60;85.30;;;;;;5033438;28;20204;-74
2023/07/12 04:28:24;;;;;;;5.38;3.88;;;20.60;84.70;;;;;;5033438;28;20670;-75
2023/07/12 04:30:50;;;;;;;4.82;4.43;;;20.70;85.10;;;;;;5033244;28;20658;-74
2023/07/12 04:33:16;;;;;;;4.18;3.85;;;20.70;85.20;;;;;;5033286;28;20188;-74
2023/07/12 04:35:41;;;;;;;3.92;3.63;;;20.80;85.20;;;;;;5033322;28;20191;-74
2023/07/12 04:38:07;;;;;;;4.45;4.10;;;20.80;85.60;;;;;;5033102;28;20187;-74
2023/07/12 04:40:34;;;;;;;4.28;3.67;;;20.90;85.30;;;;;;5031796;28;20247;-74
2023/07/12 04:43:03;;;;;;;3.97;3.78;;;20.90;85.20;;;;;;5031855;28;20240;-75
2023/07/12 04:45:30;;;;;;;4.50;4.10;;;20.90;85.20;;;;;;5032856;28;20177;-75
2023/07/12 04:47:56;;;;;;;4.18;3.85;;;21.00;85.50;;;;;;5033036;28;20181;-76
2023/07/12 04:50:22;;;;;;;4.88;4.20;;;21.00;85.40;;;;;;5032937;28;20195;-75
2023/07/12 04:52:47;;;;;;;5.05;4.65;;;21.00;85.40;;;;;;5032904;28;20599;-75
2023/07/12 04:55:22;;;;;;;4.38;4.07;;;21.10;85.60;;;;;;5032919;28;20234;-75
2023/07/12 04:57:48;;;;;;;4.38;4.07;;;21.10;85.00;;;;;;5021350;28;20188;-75
2023/07/12 05:00:15;;;;;;;4.72;4.38;;;21.10;85.60;;;;;;5032597;28;20776;-75
2023/07/12 05:02:42;;;;;;;5.97;4.65;;;21.10;86.90;;;;;;5021454;28;20263;-75
2023/07/12 05:05:08;;;;;;;8.63;4.13;;;21.10;85.90;;;;;;5030751;28;20246;-75
2023/07/12 05:07:34;;;;;;;4.70;4.30;;;21.10;85.60;;;;;;5032688;28;20193;-75
2023/07/12 05:09:59;;;;;;;6.20;4.60;;;21.20;85.50;;;;;;5032604;28;20180;-75
2023/07/12 05:12:25;;;;;;;5.13;4.72;;;21.20;85.90;;;;;;5032584;28;20263;-75
2023/07/12 05:14:50;;;;;;;5.68;5.03;;;21.30;85.30;;;;;;5032261;28;20709;-75
2023/07/12 05:17:16;;;;;;;6.68;5.32;;;21.30;85.70;;;;;;5032563;28;20263;-75
2023/07/12 05:19:42;;;;;;;5.25;4.75;;;21.30;85.70;;;;;;5033611;28;20216;-75
2023/07/12 05:22:07;;;;;;;8.23;5.90;;;21.40;85.20;;;;;;5032322;28;20207;-75
2023/07/12 05:24:33;;;;;;;5.43;4.45;;;21.40;85.20;;;;;;5032402;28;20238;-75
2023/07/12 05:26:59;;;;;;;5.07;4.68;;;21.50;84.90;;;;;;5031096;28;20279;-75
2023/07/12 05:29:24;;;;;;;5.15;4.75;;;21.60;84.60;;;;;;5032275;28;20692;-75
2023/07/12 05:31:50;;;;;;;5.57;5.15;;;21.60;84.50;;;;;;5031962;28;20560;-75
2023/07/12 05:34:16;;;;;;;4.97;4.65;;;21.70;84.00;;;;;;5032085;28;20173;-75
2023/07/12 05:36:41;;;;;;;6.32;4.65;;;21.70;84.70;;;;;;5032129;28;20638;-75
2023/07/12 05:39:07;;;;;;;8.35;5.93;;;21.80;83.90;;;;;;5031935;28;20246;-75
2023/07/12 05:41:33;;;;;;;5.22;4.72;;;21.90;84.70;;;;;;5020145;28;20223;-75
2023/07/12 05:43:59;;;;;;;5.22;4.82;;;21.90;84.30;;;;;;5031964;28;20699;-75
2023/07/12 05:46:25;;;;;;;4.93;4.57;;;22.00;84.00;;;;;;5019969;28;20296;-74
2023/07/12 05:48:51;;;;;;;6.43;5.00;;;22.10;84.00;;;;;;5031777;28;20185;-75
2023/07/12 05:51:16;;;;;;;5.28;4.78;;;22.10;83.90;;;;;;5032003;28;20181;-75
2023/07/12 05:53:42;;;;;;;5.32;4.90;;;22.20;84.00;;;;;;5031718;28;20180;-75
2023/07/12 05:56:08;;;;;;;4.72;4.40;;;22.30;83.40;;;;;;5031700;28;20603;-75
2023/07/12 05:58:35;;;;;;;4.20;3.90;;;22.30;83.40;;;;;;5031696;28;20764;-75
2023/07/12 06:01:02;;;;;;;4.22;4.00;;;22.40;83.20;;;;;;5031338;28;20207;-75
2023/07/12 06:03:30;;;;;;;6.07;4.88;;;22.50;83.10;;;;;;5031736;28;20168;-75
2023/07/12 06:05:56;;;;;;;4.75;4.35;;;22.50;82.50;;;;;;5019692;28;20191;-75
2023/07/12 06:08:23;;;;;;;4.90;4.65;;;22.60;82.70;;;;;;5030077;28;20184;-75
2023/07/12 06:10:49;;;;;;;5.80;4.70;;;22.60;82.50;;;;;;5031447;28;20180;-74
2023/07/12 06:13:15;;;;;;;4.68;4.32;;;22.70;82.30;;;;;;5031206;28;20177;-75
2023/07/12 06:15:41;;;;;;;4.35;4.05;;;22.80;82.10;;;;;;5030534;28;20185;-75
2023/07/12 06:18:07;;;;;;;4.85;4.35;;;22.80;82.30;;;;;;5031221;28;20183;-74
2023/07/12 06:20:33;;;;;;;4.32;4.13;;;22.90;81.50;;;;;;5032425;28;20216;-74
2023/07/12 06:22:59;;;;;;;4.90;4.03;;;23.00;81.70;;;;;;5031155;28;20578;-74
2023/07/12 06:25:25;;;;;;;6.15;4.47;;;23.00;81.70;;;;;;5031207;28;20568;-75
2023/07/12 06:27:51;;;;;;;6.88;5.28;;;23.10;81.20;;;;;;5030989;28;20180;-76
2023/07/12 06:30:18;;;;;;;4.63;4.32;;;23.10;81.00;;;;;;5031143;28;20188;-75
2023/07/12 06:32:44;;;;;;;4.97;4.60;;;23.20;80.40;;;;;;5030895;28;20176;-75
2023/07/12 06:35:10;;;;;;;5.20;4.75;;;23.20;81.00;;;;;;5031012;28;20187;-76
2023/07/12 06:37:35;;;;;;;5.10;4.32;;;23.30;81.00;;;;;;5030883;28;20173;-75
2023/07/12 06:40:01;;;;;;;5.05;4.63;;;23.40;80.50;;;;;;5019398;28;20708;-75
2023/07/12 06:42:27;;;;;;;5.18;4.80;;;23.40;80.50;;;;;;5029568;28;20181;-75
2023/07/12 06:44:53;;;;;;;6.03;4.10;;;23.50;79.80;;;;;;5031055;28;20256;-75
2023/07/12 06:47:18;;;;;;;3.83;3.63;;;23.50;79.60;;;;;;5030730;28;20196;-75
2023/07/12 06:49:44;;;;;;;4.47;4.03;;;23.60;79.60;;;;;;5029626;28;20237;-75
2023/07/12 06:52:10;;;;;;;6.07;4.68;;;23.70;79.30;;;;;;5030653;28;20226;-76
2023/07/12 06:54:36;;;;;;;6.68;5.03;;;23.80;79.80;;;;;;5030705;28;20665;-75
2023/07/12 06:57:02;;;;;;;4.70;4.40;;;23.80;79.10;;;;;;5029283;28;20569;-75
2023/07/12 06:59:27;;;;;;;5.15;4.70;;;23.90;78.90;;;;;;5030679;28;20242;-75
2023/07/12 07:01:53;;;;;;;5.38;4.47;;;24.00;78.80;;;;;;5030333;28;20172;-75
2023/07/12 07:04:19;;;;;;;5.60;5.05;;;24.10;79.00;;;;;;5029280;28;20200;-75
2023/07/12 07:06:44;;;;;;;4.93;4.57;;;24.10;79.00;;;;;;5029216;28;20207;-75
2023/07/12 07:09:10;;;;;;;5.45;4.93;;;24.20;79.50;;;;;;5030490;28;20184;-75
2023/07/12 07:11:37;;;;;;;4.93;4.60;;;24.30;78.70;;;;;;5030312;28;20696;-75
2023/07/12 07:14:03;;;;;;;5.40;4.93;;;24.40;78.60;;;;;;5030467;28;20188;-75
2023/07/12 07:16:29;;;;;;;4.82;4.53;;;24.40;78.60;;;;;;5030307;28;20176;-75
2023/07/12 07:18:55;;;;;;;5.03;4.72;;;24.50;78.50;;;;;;5029056;28;20557;-75
2023/07/12 07:21:22;;;;;;;5.65;5.15;;;24.60;78.30;;;;;;5031570;28;20187;-75
2023/07/12 07:23:47;;;;;;;5.32;4.93;;;24.70;78.10;;;;;;5030313;28;20176;-75
2023/07/12 07:26:14;;;;;;;6.88;5.20;;;24.80;77.70;;;;;;5030387;28;20646;-75
2023/07/12 07:28:40;;;;;;;4.93;4.53;;;24.90;78.10;;;;;;5033928;28;20568;-75
2023/07/12 07:31:07;;;;;;;4.40;4.10;;;25.00;78.40;;;;;;5033036;28;20192;-75
2023/07/12 07:33:32;;;;;;;5.65;5.10;;;25.10;78.60;;;;;;5032944;28;20187;-76
2023/07/12 07:35:58;;;;;;;5.07;4.68;;;25.10;78.70;;;;;;5034225;28;20181;-75
2023/07/12 07:38:27;;;;;;;5.13;4.72;;;25.20;77.70;;;;;;5034322;28;20173;-75
2023/07/12 07:40:55;;;;;;;5.30;4.50;;;25.30;76.60;;;;;;5032813;28;20208;-74
2023/07/12 07:43:21;;;;;;;7.03;5.35;;;25.40;75.80;;;;;;5034199;28;20326;-75
2023/07/12 07:45:47;;;;;;;5.30;4.45;;;25.50;75.40;;;;;;5021968;28;20240;-75
2023/07/12 07:48:12;;;;;;;5.00;4.57;;;25.50;75.10;;;;;;5033987;28;20196;-74
2023/07/12 07:50:39;;;;;;;5.55;5.05;;;25.60;75.20;;;;;;5034050;28;20282;-74
2023/07/12 07:53:05;;;;;;;5.97;5.47;;;25.70;74.70;;;;;;5034032;28;20566;-75
2023/07/12 07:55:32;;;;;;;5.75;5.35;;;25.60;73.90;;;;;;5033921;28;20172;-74
2023/07/12 07:57:57;;;;;;;7.07;5.93;;;25.80;74.60;;;;;;5032408;28;20670;-75
2023/07/12 08:00:23;;;;;;;6.88;5.80;;;25.80;73.90;;;;;;5033808;28;20295;-75
2023/07/12 08:02:49;;;;;;;5.10;4.75;;;25.90;74.10;;;;;;5033732;28;20199;-75
2023/07/12 08:05:15;;;;;;;8.52;5.30;;;26.00;73.90;;;;;;5033676;28;20259;-75
2023/07/12 08:07:46;;;;;;;5.20;4.70;;;26.00;73.70;;;;;;5032457;28;20177;-75
2023/07/12 08:10:15;;;;;;;4.95;4.63;;;26.10;74.40;;;;;;5021185;28;20176;-75
2023/07/12 08:12:41;;;;;;;5.50;4.97;;;26.20;74.80;;;;;;5033796;28;20196;-75
2023/07/12 08:15:08;;;;;;;5.85;5.45;;;26.30;74.70;;;;;;5033524;28;20184;-75
2023/07/12 08:17:34;;;;;;;6.00;5.43;;;26.40;75.00;;;;;;5033599;28;20176;-75
2023/07/12 08:20:00;;;;;;;6.28;5.60;;;26.50;74.60;;;;;;5034518;28;20219;-75
2023/07/12 08:22:25;;;;;;;5.85;5.35;;;26.70;74.40;;;;;;5033429;28;20646;-75
2023/07/12 08:24:51;;;;;;;6.05;5.55;;;26.80;74.20;;;;;;5033311;28;20184;-75
2023/07/12 08:27:18;;;;;;;5.13;4.75;;;26.80;74.10;;;;;;5033491;28;20567;-75
2023/07/12 08:29:44;;;;;;;6.30;5.68;;;26.90;72.80;;;;;;5033179;28;20181;-76
2023/07/12 08:32:11;;;;;;;7.85;5.25;;;27.00;72.40;;;;;;5033227;28;20268;-75
2023/07/12 08:34:37;;;;;;;6.10;5.43;;;27.10;72.40;;;;;;5032989;28;20177;-75
2023/07/12 08:37:03;;;;;;;5.60;4.95;;;27.20;72.80;;;;;;5033202;28;20231;-75
2023/07/12 08:39:29;;;;;;;6.18;5.70;;;27.30;72.40;;;;;;5031758;28;20212;-75
2023/07/12 08:41:54;;;;;;;7.78;5.60;;;27.30;73.10;;;;;;5033127;28;20631;-75
2023/07/12 08:44:22;;;;;;;5.78;5.25;;;27.40;71.50;;;;;;5032966;28;20180;-75
2023/07/12 08:46:56;;;;;;;7.20;5.70;;;27.60;72.20;;;;;;5032985;28;20180;-75
2023/07/12 08:49:23;;;;;;;8.15;5.63;;;27.70;72.20;;;;;;5032709;28;20184;-75
2023/07/12 08:51:51;;;;;;;6.05;5.65;;;27.80;70.80;;;;;;5032593;28;20176;-75
2023/07/12 08:54:33;;;;;;;5.43;5.03;;;27.80;71.10;;;;;;5032716;28;20306;-75
2023/07/12 08:57:15;;;;;;;5.95;5.28;;;27.90;71.30;;;;;;5031334;28;20184;-75
2023/07/12 08:59:43;;;;;;;5.80;5.30;;;28.10;71.20;;;;;;5021774;28;20220;-75
2023/07/12 09:02:21;;;;;;;8.45;5.75;;;28.20;71.40;;;;;;5032395;28;20670;-75
2023/07/12 09:04:47;;;;;;;6.28;5.68;;;28.30;70.80;;;;;;5032225;28;20172;-75
2023/07/12 09:07:26;;;;;;;6.03;5.57;;;28.50;70.40;;;;;;5032718;28;20177;-75
2023/07/12 09:09:55;;;;;;;6.35;5.85;;;28.60;70.00;;;;;;5032508;28;20180;-75
2023/07/12 09:12:30;;;;;;;5.93;5.32;;;28.70;70.20;;;;;;5032738;28;20560;-75
2023/07/12 09:15:11;;;;;;;6.32;5.90;;;28.90;70.10;;;;;;5032429;28;20202;-76
2023/07/12 09:17:45;;;;;;;6.78;6.15;;;29.00;69.90;;;;;;5032619;28;20172;-75
2023/07/12 09:20:30;;;;;;;6.47;5.53;;;29.20;69.40;;;;;;5033279;28;20215;-75
2023/07/12 09:22:59;;;;;;;6.07;5.57;;;29.30;70.00;;;;;;5030869;28;20181;-75
2023/07/12 09:25:33;;;;;;;6.32;5.68;;;29.40;70.80;;;;;;5031095;28;20191;-75
2023/07/12 09:27:58;;;;;;;5.30;4.90;;;29.60;70.30;;;;;;5032264;28;20181;-75
2023/07/12 09:30:27;;;;;;;5.70;5.32;;;29.80;69.00;;;;;;5032163;28;20287;-75
2023/07/12 09:32:54;;;;;;;6.30;5.68;;;29.90;68.60;;;;;;5032029;28;20609;-75
2023/07/12 09:35:37;;;;;;;5.20;4.90;;;30.00;68.90;;;;;;5032016;28;20586;-76
2023/07/12 09:38:08;;;;;;;5.82;5.32;;;30.10;67.80;;;;;;5032003;28;20188;-74
2023/07/12 09:40:42;;;;;;;5.82;5.30;;;30.30;67.70;;;;;;5031949;28;20713;-73
2023/07/12 09:43:16;;;;;;;6.57;5.28;;;30.50;67.50;;;;;;5031138;28;20184;-74
2023/07/12 09:45:49;;;;;;;5.18;4.85;;;30.60;67.30;;;;;;5030594;28;20188;-74
2023/07/12 09:48:34;;;;;;;5.75;5.25;;;30.80;66.60;;;;;;5032088;28;20180;-74
2023/07/12 09:51:22;;;;;;;5.35;4.90;;;30.90;66.70;;;;;;5031432;28;20191;-74
2023/07/12 09:53:55;;;;;;;5.57;5.05;;;31.00;66.80;;;;;;5031574;28;20211;-74
2023/07/12 09:56:47;;;;;;;5.55;5.13;;;31.20;65.40;;;;;;5021417;28;20180;-74
2023/07/12 09:59:18;;;;;;;6.57;4.85;;;31.40;65.20;;;;;;5031420;28;20246;-74
2023/07/12 10:02:02;;;;;;;5.22;4.93;;;31.60;65.30;;;;;;5031499;28;20207;-75
2023/07/12 10:04:33;;;;;;;6.00;4.55;;;31.80;65.00;;;;;;5021190;28;20230;-74
2023/07/12 10:07:03;;;;;;;5.85;4.95;;;31.90;63.20;;;;;;5031384;28;20183;-73
2023/07/12 10:09:35;;;;;;;5.60;5.10;;;32.00;61.60;;;;;;5030105;28;20180;-74
2023/07/12 10:12:19;;;;;;;5.10;4.68;;;32.20;62.30;;;;;;5031397;28;20658;-74
2023/07/12 10:14:46;;;;;;;4.57;4.10;;;32.40;60.90;;;;;;5031360;28;20186;-74
2023/07/12 10:17:21;;;;;;;5.20;4.80;;;32.50;62.30;;;;;;5031194;28;20250;-74
2023/07/12 10:19:53;;;;;;;6.43;4.97;;;32.70;63.00;;;;;;5032184;28;20207;-74
2023/07/12 10:22:38;;;;;;;4.63;4.28;;;33.00;61.30;;;;;;5029953;28;20180;-74
2023/07/12 10:25:16;;;;;;;5.05;4.63;;;33.40;57.70;;;;;;5030960;28;20226;-73
2023/07/12 10:27:47;;;;;;;4.70;4.38;;;33.70;58.50;;;;;;5031098;28;20235;-74
2023/07/12 10:30:19;;;;;;;3.95;3.67;;;34.10;56.10;;;;;;5031586;28;20551;-74
2023/07/12 10:32:55;;;;;;;4.78;4.38;;;34.30;57.10;;;;;;5030793;28;20184;-74
2023/07/12 10:35:45;;;;;;;4.65;3.92;;;34.60;56.40;;;;;;5031211;28;20206;-75
2023/07/12 10:38:15;;;;;;;4.65;3.83;;;35.00;55.80;;;;;;5029463;28;20180;-75
2023/07/12 10:40:52;;;;;;;5.30;4.28;;;35.40;56.10;;;;;;5030892;28;20675;-74
2023/07/12 10:43:43;;;;;;;4.13;3.83;;;35.90;55.60;;;;;;5020441;28;20207;-74
2023/07/12 10:46:18;;;;;;;4.55;4.18;;;36.40;55.00;;;;;;5030820;28;20184;-74
2023/07/12 10:48:49;;;;;;;5.47;4.32;;;36.80;53.50;;;;;;5030989;28;20188;-75
2023/07/12 10:51:33;;;;;;;4.32;3.95;;;37.40;52.60;;;;;;5030803;28;20167;-75
2023/07/12 10:53:59;;;;;;;4.75;4.40;;;38.00;51.70;;;;;;5030453;28;20649;-74
2023/07/12 10:56:45;;;;;;;4.70;4.35;;;38.70;50.20;;;;;;5030684;28;20178;-75
2023/07/12 10:59:30;;;;;;;4.88;4.38;;;39.10;49.70;;;;;;5026467;28;20211;-75
2023/07/12 11:02:19;;;;;;;4.68;4.38;;;39.30;49.00;;;;;;5025119;28;20240;-75
2023/07/12 11:04:47;;;;;;;5.55;4.97;;;39.20;50.20;;;;;;5030633;28;20176;-75
2023/07/12 11:07:15;;;;;;;4.75;4.35;;;38.90;50.40;;;;;;5030429;28;20699;-75
2023/07/12 11:09:44;;;;;;;4.28;4.10;;;38.90;49.80;;;;;;5030565;28;20179;-75
2023/07/12 11:12:25;;;;;;;4.20;3.97;;;39.20;50.50;;;;;;5030414;28;20176;-75
2023/07/12 11:14:52;;;;;;;3.97;3.88;;;39.40;51.00;;;;;;5030110;28;20230;-75
2023/07/12 11:17:21;;;;;;;4.47;3.85;;;39.80;48.50;;;;;;5030485;28;20168;-75
2023/07/12 11:20:01;;;;;;;4.15;3.78;;;39.90;48.50;;;;;;5031361;28;20206;-75
2023/07/12 11:22:56;;;;;;;3.53;3.42;;;40.30;47.80;;;;;;5030550;28;20171;-75
2023/07/12 11:25:57;;;;;;;3.53;3.42;;;40.30;47.60;;;;;;5050775;28;20179;-75
2023/07/12 11:28:23;;;;;;;4.15;3.70;;;40.30;49.10;;;;;;5030439;28;20176;-75
2023/07/12 11:31:23;;;;;;;3.85;3.63;;;40.40;48.20;;;;;;5030153;28;20737;-74
2023/07/12 11:34:04;;;;;;;4.03;3.83;;;40.60;47.80;;;;;;5020456;28;20194;-75
2023/07/12 11:36:34;;;;;;;4.50;4.20;;;40.80;48.30;;;;;;5028213;28;20178;-74
2023/07/12 11:39:01;;;;;;;4.50;4.20;;;40.50;49.10;;;;;;5030081;28;20172;-75
2023/07/12 11:41:28;;;;;;;4.18;4.03;;;40.40;48.90;;;;;;5030346;28;20184;-75
2023/07/12 11:44:03;;;;;;;4.47;4.28;;;40.20;48.40;;;;;;5030085;28;20199;-74
2023/07/12 11:46:38;;;;;;;3.83;3.63;;;40.20;48.70;;;;;;5030162;28;20175;-74
2023/07/12 11:49:13;;;;;;;4.63;4.18;;;40.30;49.10;;;;;;5030480;28;20183;-74
2023/07/12 11:51:42;;;;;;;4.30;4.10;;;40.50;48.80;;;;;;5030104;28;20186;-74
2023/07/12 11:54:34;;;;;;;4.13;3.95;;;40.40;48.10;;;;;;5029809;28;20259;-75
2023/07/12 11:57:01;;;;;;;3.95;3.85;;;40.00;48.40;;;;;;5029896;28;20203;-74
2023/07/12 11:59:30;;;;;;;5.03;3.97;;;39.90;48.60;;;;;;5018480;28;20199;-75
2023/07/12 12:01:55;;;;;;;4.47;4.28;;;40.00;48.90;;;;;;5030072;28;20191;-74
2023/07/12 12:04:24;;;;;;;3.90;3.80;;;40.40;49.50;;;;;;5030042;28;20180;-74
2023/07/12 12:07:02;;;;;;;4.28;4.05;;;40.70;48.10;;;;;;5029884;28;20178;-74
2023/07/12 12:09:35;;;;;;;3.25;3.15;;;41.10;47.50;;;;;;5030063;28;20183;-74
2023/07/12 12:12:02;;;;;;;4.10;3.90;;;41.50;48.20;;;;;;5029812;28;20257;-74
2023/07/12 12:14:36;;;;;;;4.10;3.90;;;42.10;47.80;;;;;;5032702;28;20228;-74
2023/07/12 12:17:11;;;;;;;3.78;3.67;;;42.90;47.70;;;;;;5033340;28;20708;-74
2023/07/12 12:19:37;;;;;;;3.72;3.63;;;43.30;46.40;;;;;;5034872;28;20241;-74
2023/07/12 12:22:13;;;;;;;5.72;3.85;;;43.80;45.80;;;;;;5033682;28;20172;-74
2023/07/12 12:24:47;;;;;;;4.13;3.92;;;43.90;45.20;;;;;;5033541;28;20182;-74
2023/07/12 12:27:18;;;;;;;3.92;3.58;;;43.50;45.20;;;;;;5033656;28;20176;-74
2023/07/12 12:29:44;;;;;;;3.53;3.42;;;43.10;45.70;;;;;;5033454;28;20184;-74
2023/07/12 12:32:16;;;;;;;4.40;4.18;;;43.00;47.50;;;;;;5033294;28;20176;-74
2023/07/12 12:34:47;;;;;;;4.03;3.45;;;42.70;46.00;;;;;;5033672;28;20609;-74
2023/07/12 12:37:23;;;;;;;8.63;3.95;;;42.70;45.90;;;;;;5032053;28;20270;-75
2023/07/12 12:40:07;;;;;;;3.35;3.30;;;42.40;46.10;;;;;;5033050;28;20257;-74
2023/07/12 12:42:33;;;;;;;4.05;3.75;;;42.50;46.40;;;;;;5031918;28;20187;-74
2023/07/12 12:44:59;;;;;;;4.15;3.85;;;42.60;47.30;;;;;;5033004;28;20629;-75
2023/07/12 12:47:30;;;;;;;3.83;3.72;;;42.80;47.70;;;;;;5033027;28;20250;-74
2023/07/12 12:49:57;;;;;;;3.72;3.42;;;42.90;47.10;;;;;;5031740;28;20662;-74
2023/07/12 12:52:36;;;;;;;4.30;3.92;;;43.00;45.80;;;;;;5033067;28;20180;-75
2023/07/12 12:55:08;;;;;;;4.18;3.88;;;42.70;45.40;;;;;;5031362;28;20750;-75
2023/07/12 12:57:35;;;;;;;3.63;3.50;;;42.70;48.00;;;;;;5032707;28;20188;-75
2023/07/12 13:00:22;;;;;;;4.13;3.88;;;42.50;47.30;;;;;;5032853;28;20596;-74
2023/07/12 13:02:50;;;;;;;4.03;3.83;;;42.30;46.30;;;;;;5021669;28;20257;-74